sensor_id;sensor_type;location;lat;lon;timestamp;P1;durP1;ratioP1;P2;durP2;ratioP2
34924;SDS011;21130;51.728;8.748;2023-03-17T00:00:02;5.15;;;4.10;;
34924;SDS011;21130;51.728;8.748;2023-03-17T00:02:29;5.53;;;4.30;;
34924;SDS011;21130;51.728;8.748;2023-03-17T00:04:55;4.85;;;4.13;;
34924;SDS011;21130;51.728;8.748;2023-03-17T00:07:23;4.18;;;3.78;;
34924;SDS011;21130;51.728;8.748;2023-03-17T00:09:50;5.43;;;4.15;;
34924;SDS011;21130;51.728;8.748;2023-03-17T00:12:16;5.43;;;4.32;;
34924;SDS011;21130;51.728;8.748;2023-03-17T00:14:43;4.78;;;4.25;;
34924;SDS011;21130;51.728;8.748;2023-03-17T00:17:11;4.82;;;3.83;;
34924;SDS011;21130;51.728;8.748;2023-03-17T00:19:39;4.47;;;3.95;;
34924;SDS011;21130;51.728;8.748;2023-03-17T00:22:11;5.95;;;4.10;;
34924;SDS011;21130;51.728;8.748;2023-03-17T00:24:43;5.30;;;4.22;;
34924;SDS011;21130;51.728;8.748;2023-03-17T00:27:10;4.95;;;3.83;;
34924;SDS011;21130;51.728;8.748;2023-03-17T00:29:37;6.70;;;4.43;;
34924;SDS011;21130;51.728;8.748;2023-03-17T00:32:04;4.47;;;3.88;;
34924;SDS011;21130;51.728;8.748;2023-03-17T00:34:31;5.60;;;3.80;;
34924;SDS011;21130;51.728;8.748;2023-03-17T00:36:58;5.13;;;3.85;;
34924;SDS011;21130;51.728;8.748;2023-03-17T00:39:24;4.00;;;3.60;;
34924;SDS011;21130;51.728;8.748;2023-03-17T00:41:52;5.00;;;3.70;;
34924;SDS011;21130;51.728;8.748;2023-03-17T00:44:19;7.10;;;4.28;;
34924;SDS011;21130;51.728;8.748;2023-03-17T00:46:45;4.72;;;4.03;;
34924;SDS011;21130;51.728;8.748;2023-03-17T00:49:13;5.22;;;3.78;;
34924;SDS011;21130;51.728;8.748;2023-03-17T00:51:41;5.53;;;4.40;;
34924;SDS011;21130;51.728;8.748;2023-03-17T00:54:08;4.97;;;4.20;;
34924;SDS011;21130;51.728;8.748;2023-03-17T00:56:35;5.75;;;3.75;;
34924;SDS011;21130;51.728;8.748;2023-03-17T00:59:04;4.47;;;4.07;;
34924;SDS011;21130;51.728;8.748;2023-03-17T01:01:43;6.40;;;4.28;;
34924;SDS011;21130;51.728;8.748;2023-03-17T01:04:09;8.80;;;6.00;;
34924;SDS011;21130;51.728;8.748;2023-03-17T01:06:36;6.35;;;4.07;;
34924;SDS011;21130;51.728;8.748;2023-03-17T01:09:03;6.32;;;4.40;;
34924;SDS011;21130;51.728;8.748;2023-03-17T01:11:30;5.90;;;3.80;;
34924;SDS011;21130;51.728;8.748;2023-03-17T01:13:56;4.90;;;4.28;;
34924;SDS011;21130;51.728;8.748;2023-03-17T01:16:24;4.80;;;4.22;;
34924;SDS011;21130;51.728;8.748;2023-03-17T01:18:50;4.45;;;3.90;;
34924;SDS011;21130;51.728;8.748;2023-03-17T01:21:17;5.63;;;4.20;;
34924;SDS011;21130;51.728;8.748;2023-03-17T01:23:44;5.13;;;4.13;;
34924;SDS011;21130;51.728;8.748;2023-03-17T01:26:11;4.70;;;4.13;;
34924;SDS011;21130;51.728;8.748;2023-03-17T01:28:38;4.15;;;3.55;;
34924;SDS011;21130;51.728;8.748;2023-03-17T01:31:04;6.85;;;4.28;;
34924;SDS011;21130;51.728;8.748;2023-03-17T01:33:32;4.93;;;4.43;;
34924;SDS011;21130;51.728;8.748;2023-03-17T01:35:59;4.90;;;4.40;;
34924;SDS011;21130;51.728;8.748;2023-03-17T01:38:25;5.43;;;4.40;;
34924;SDS011;21130;51.728;8.748;2023-03-17T01:40:52;6.38;;;4.00;;
34924;SDS011;21130;51.728;8.748;2023-03-17T01:43:20;6.28;;;4.63;;
34924;SDS011;21130;51.728;8.748;2023-03-17T01:48:52;6.63;;;4.10;;
34924;SDS011;21130;51.728;8.748;2023-03-17T01:51:29;5.63;;;4.75;;
34924;SDS011;21130;51.728;8.748;2023-03-17T01:53:59;6.13;;;4.35;;
34924;SDS011;21130;51.728;8.748;2023-03-17T01:56:28;5.85;;;4.45;;
34924;SDS011;21130;51.728;8.748;2023-03-17T01:58:55;6.88;;;4.50;;
34924;SDS011;21130;51.728;8.748;2023-03-17T02:01:27;4.93;;;4.20;;
34924;SDS011;21130;51.728;8.748;2023-03-17T02:04:02;4.78;;;4.32;;
34924;SDS011;21130;51.728;8.748;2023-03-17T02:06:30;4.50;;;4.10;;
34924;SDS011;21130;51.728;8.748;2023-03-17T02:08:57;5.35;;;4.22;;
34924;SDS011;21130;51.728;8.748;2023-03-17T02:11:25;5.65;;;4.18;;
34924;SDS011;21130;51.728;8.748;2023-03-17T02:13:52;7.05;;;4.45;;
34924;SDS011;21130;51.728;8.748;2023-03-17T02:16:19;5.00;;;4.50;;
34924;SDS011;21130;51.728;8.748;2023-03-17T02:18:46;5.18;;;4.40;;
34924;SDS011;21130;51.728;8.748;2023-03-17T02:24:14;5.25;;;4.30;;
34924;SDS011;21130;51.728;8.748;2023-03-17T02:26:46;5.40;;;4.43;;
34924;SDS011;21130;51.728;8.748;2023-03-17T02:29:13;5.40;;;3.80;;
34924;SDS011;21130;51.728;8.748;2023-03-17T02:31:40;6.65;;;4.20;;
34924;SDS011;21130;51.728;8.748;2023-03-17T02:34:08;6.38;;;4.50;;
34924;SDS011;21130;51.728;8.748;2023-03-17T02:36:35;4.97;;;4.22;;
34924;SDS011;21130;51.728;8.748;2023-03-17T02:39:03;5.72;;;4.00;;
34924;SDS011;21130;51.728;8.748;2023-03-17T02:41:30;5.70;;;4.25;;
34924;SDS011;21130;51.728;8.748;2023-03-17T02:43:57;7.13;;;5.05;;
34924;SDS011;21130;51.728;8.748;2023-03-17T02:46:23;6.50;;;4.10;;
34924;SDS011;21130;51.728;8.748;2023-03-17T02:48:50;5.97;;;4.63;;
34924;SDS011;21130;51.728;8.748;2023-03-17T02:51:17;4.20;;;3.80;;
34924;SDS011;21130;51.728;8.748;2023-03-17T02:53:43;5.07;;;4.30;;
34924;SDS011;21130;51.728;8.748;2023-03-17T02:56:11;5.50;;;4.10;;
34924;SDS011;21130;51.728;8.748;2023-03-17T02:58:38;5.07;;;3.90;;
34924;SDS011;21130;51.728;8.748;2023-03-17T03:01:04;4.43;;;4.03;;
34924;SDS011;21130;51.728;8.748;2023-03-17T03:03:31;5.63;;;3.65;;
34924;SDS011;21130;51.728;8.748;2023-03-17T03:05:58;5.95;;;4.50;;
34924;SDS011;21130;51.728;8.748;2023-03-17T03:08:24;5.15;;;3.95;;
34924;SDS011;21130;51.728;8.748;2023-03-17T03:10:51;4.53;;;3.97;;
34924;SDS011;21130;51.728;8.748;2023-03-17T03:13:20;4.70;;;4.20;;
34924;SDS011;21130;51.728;8.748;2023-03-17T03:15:47;5.22;;;4.72;;
34924;SDS011;21130;51.728;8.748;2023-03-17T03:18:13;5.13;;;4.57;;
34924;SDS011;21130;51.728;8.748;2023-03-17T03:20:40;6.38;;;4.50;;
34924;SDS011;21130;51.728;8.748;2023-03-17T03:23:08;5.90;;;4.90;;
34924;SDS011;21130;51.728;8.748;2023-03-17T03:25:35;4.95;;;4.45;;
34924;SDS011;21130;51.728;8.748;2023-03-17T03:28:02;5.03;;;4.32;;
34924;SDS011;21130;51.728;8.748;2023-03-17T03:30:30;5.55;;;4.53;;
34924;SDS011;21130;51.728;8.748;2023-03-17T03:32:57;6.63;;;4.72;;
34924;SDS011;21130;51.728;8.748;2023-03-17T03:35:24;6.50;;;4.60;;
34924;SDS011;21130;51.728;8.748;2023-03-17T03:37:50;6.03;;;4.65;;
34924;SDS011;21130;51.728;8.748;2023-03-17T03:40:17;5.53;;;4.85;;
34924;SDS011;21130;51.728;8.748;2023-03-17T03:42:43;5.45;;;4.53;;
34924;SDS011;21130;51.728;8.748;2023-03-17T03:45:10;5.07;;;4.57;;
34924;SDS011;21130;51.728;8.748;2023-03-17T03:47:38;5.32;;;4.28;;
34924;SDS011;21130;51.728;8.748;2023-03-17T03:50:05;6.15;;;4.70;;
34924;SDS011;21130;51.728;8.748;2023-03-17T03:52:32;7.05;;;4.57;;
34924;SDS011;21130;51.728;8.748;2023-03-17T03:54:59;4.75;;;4.28;;
34924;SDS011;21130;51.728;8.748;2023-03-17T03:57:25;5.68;;;4.90;;
34924;SDS011;21130;51.728;8.748;2023-03-17T03:59:52;5.78;;;4.03;;
34924;SDS011;21130;51.728;8.748;2023-03-17T04:02:18;6.13;;;4.47;;
34924;SDS011;21130;51.728;8.748;2023-03-17T04:04:46;5.75;;;4.60;;
34924;SDS011;21130;51.728;8.748;2023-03-17T04:07:13;5.80;;;4.75;;
34924;SDS011;21130;51.728;8.748;2023-03-17T04:09:40;5.00;;;4.50;;
34924;SDS011;21130;51.728;8.748;2023-03-17T04:12:07;6.43;;;4.40;;
34924;SDS011;21130;51.728;8.748;2023-03-17T04:14:34;5.15;;;4.65;;
34924;SDS011;21130;51.728;8.748;2023-03-17T04:17:01;5.15;;;4.53;;
34924;SDS011;21130;51.728;8.748;2023-03-17T04:19:29;9.00;;;5.05;;
34924;SDS011;21130;51.728;8.748;2023-03-17T04:21:57;5.47;;;4.60;;
34924;SDS011;21130;51.728;8.748;2023-03-17T04:24:23;6.43;;;4.88;;
34924;SDS011;21130;51.728;8.748;2023-03-17T04:26:51;6.32;;;5.07;;
34924;SDS011;21130;51.728;8.748;2023-03-17T04:29:18;5.75;;;4.93;;
34924;SDS011;21130;51.728;8.748;2023-03-17T04:31:44;5.75;;;4.55;;
34924;SDS011;21130;51.728;8.748;2023-03-17T04:34:12;6.78;;;4.60;;
34924;SDS011;21130;51.728;8.748;2023-03-17T04:36:41;5.13;;;4.63;;
34924;SDS011;21130;51.728;8.748;2023-03-17T04:39:10;5.45;;;4.95;;
34924;SDS011;21130;51.728;8.748;2023-03-17T04:41:36;5.10;;;4.43;;
34924;SDS011;21130;51.728;8.748;2023-03-17T04:44:03;8.20;;;5.00;;
34924;SDS011;21130;51.728;8.748;2023-03-17T04:46:31;4.70;;;4.30;;
34924;SDS011;21130;51.728;8.748;2023-03-17T04:48:58;6.32;;;4.70;;
34924;SDS011;21130;51.728;8.748;2023-03-17T04:51:25;5.10;;;4.60;;
34924;SDS011;21130;51.728;8.748;2023-03-17T04:53:51;4.97;;;4.45;;
34924;SDS011;21130;51.728;8.748;2023-03-17T04:56:19;4.30;;;3.90;;
34924;SDS011;21130;51.728;8.748;2023-03-17T04:58:46;5.55;;;4.63;;
34924;SDS011;21130;51.728;8.748;2023-03-17T05:01:13;5.20;;;4.35;;
34924;SDS011;21130;51.728;8.748;2023-03-17T05:03:39;5.25;;;4.43;;
34924;SDS011;21130;51.728;8.748;2023-03-17T05:06:06;6.05;;;4.60;;
34924;SDS011;21130;51.728;8.748;2023-03-17T05:08:32;5.15;;;4.65;;
34924;SDS011;21130;51.728;8.748;2023-03-17T05:10:59;5.28;;;4.55;;
34924;SDS011;21130;51.728;8.748;2023-03-17T05:13:27;6.70;;;4.55;;
34924;SDS011;21130;51.728;8.748;2023-03-17T05:15:54;5.32;;;4.30;;
34924;SDS011;21130;51.728;8.748;2023-03-17T05:18:21;5.45;;;4.85;;
34924;SDS011;21130;51.728;8.748;2023-03-17T05:20:49;5.28;;;4.65;;
34924;SDS011;21130;51.728;8.748;2023-03-17T05:23:16;5.22;;;4.72;;
34924;SDS011;21130;51.728;8.748;2023-03-17T05:25:42;6.63;;;4.72;;
34924;SDS011;21130;51.728;8.748;2023-03-17T05:28:09;5.50;;;4.93;;
34924;SDS011;21130;51.728;8.748;2023-03-17T05:30:37;5.05;;;4.47;;
34924;SDS011;21130;51.728;8.748;2023-03-17T05:33:04;5.15;;;4.65;;
34924;SDS011;21130;51.728;8.748;2023-03-17T05:35:31;6.03;;;4.78;;
34924;SDS011;21130;51.728;8.748;2023-03-17T05:37:57;5.82;;;4.68;;
34924;SDS011;21130;51.728;8.748;2023-03-17T05:40:24;6.25;;;5.03;;
34924;SDS011;21130;51.728;8.748;2023-03-17T05:42:50;6.88;;;5.25;;
34924;SDS011;21130;51.728;8.748;2023-03-17T05:45:17;5.93;;;4.57;;
34924;SDS011;21130;51.728;8.748;2023-03-17T05:47:45;5.78;;;4.80;;
34924;SDS011;21130;51.728;8.748;2023-03-17T05:50:11;6.85;;;5.03;;
34924;SDS011;21130;51.728;8.748;2023-03-17T05:52:38;5.45;;;4.75;;
34924;SDS011;21130;51.728;8.748;2023-03-17T05:55:05;5.20;;;4.70;;
34924;SDS011;21130;51.728;8.748;2023-03-17T05:57:32;5.93;;;5.22;;
34924;SDS011;21130;51.728;8.748;2023-03-17T05:59:59;5.35;;;4.85;;
34924;SDS011;21130;51.728;8.748;2023-03-17T06:02:26;6.00;;;4.97;;
34924;SDS011;21130;51.728;8.748;2023-03-17T06:04:54;6.10;;;5.50;;
34924;SDS011;21130;51.728;8.748;2023-03-17T06:07:20;6.28;;;5.25;;
34924;SDS011;21130;51.728;8.748;2023-03-17T06:09:47;6.20;;;4.57;;
34924;SDS011;21130;51.728;8.748;2023-03-17T06:12:13;6.80;;;4.90;;
34924;SDS011;21130;51.728;8.748;2023-03-17T06:14:40;6.95;;;4.93;;
34924;SDS011;21130;51.728;8.748;2023-03-17T06:17:07;5.57;;;4.93;;
34924;SDS011;21130;51.728;8.748;2023-03-17T06:19:33;5.60;;;4.68;;
34924;SDS011;21130;51.728;8.748;2023-03-17T06:22:01;5.70;;;4.95;;
34924;SDS011;21130;51.728;8.748;2023-03-17T06:24:28;6.07;;;5.40;;
34924;SDS011;21130;51.728;8.748;2023-03-17T06:26:55;6.75;;;5.43;;
34924;SDS011;21130;51.728;8.748;2023-03-17T06:29:21;6.05;;;4.57;;
34924;SDS011;21130;51.728;8.748;2023-03-17T06:31:48;6.07;;;4.63;;
34924;SDS011;21130;51.728;8.748;2023-03-17T06:34:15;6.05;;;5.13;;
34924;SDS011;21130;51.728;8.748;2023-03-17T06:36:42;5.68;;;4.50;;
34924;SDS011;21130;51.728;8.748;2023-03-17T06:39:13;6.15;;;4.65;;
34924;SDS011;21130;51.728;8.748;2023-03-17T06:41:42;5.00;;;4.50;;
34924;SDS011;21130;51.728;8.748;2023-03-17T06:44:08;7.03;;;5.20;;
34924;SDS011;21130;51.728;8.748;2023-03-17T06:46:35;5.63;;;5.00;;
34924;SDS011;21130;51.728;8.748;2023-03-17T06:49:02;5.80;;;4.40;;
34924;SDS011;21130;51.728;8.748;2023-03-17T06:51:28;6.57;;;4.50;;
34924;SDS011;21130;51.728;8.748;2023-03-17T06:53:56;6.22;;;4.57;;
34924;SDS011;21130;51.728;8.748;2023-03-17T06:56:24;4.90;;;4.40;;
34924;SDS011;21130;51.728;8.748;2023-03-17T06:58:51;7.07;;;5.10;;
34924;SDS011;21130;51.728;8.748;2023-03-17T07:01:18;6.50;;;4.38;;
34924;SDS011;21130;51.728;8.748;2023-03-17T07:03:44;5.75;;;5.03;;
34924;SDS011;21130;51.728;8.748;2023-03-17T07:06:11;5.18;;;4.63;;
34924;SDS011;21130;51.728;8.748;2023-03-17T07:08:38;5.05;;;4.53;;
34924;SDS011;21130;51.728;8.748;2023-03-17T07:11:05;6.57;;;4.82;;
34924;SDS011;21130;51.728;8.748;2023-03-17T07:13:33;5.78;;;4.82;;
34924;SDS011;21130;51.728;8.748;2023-03-17T07:16:02;5.65;;;4.88;;
34924;SDS011;21130;51.728;8.748;2023-03-17T07:18:30;6.13;;;4.82;;
34924;SDS011;21130;51.728;8.748;2023-03-17T07:20:57;5.30;;;4.50;;
34924;SDS011;21130;51.728;8.748;2023-03-17T07:23:24;6.05;;;4.85;;
34924;SDS011;21130;51.728;8.748;2023-03-17T07:25:51;6.22;;;4.88;;
34924;SDS011;21130;51.728;8.748;2023-03-17T07:28:17;4.90;;;4.40;;
34924;SDS011;21130;51.728;8.748;2023-03-17T07:30:47;5.97;;;4.45;;
34924;SDS011;21130;51.728;8.748;2023-03-17T07:33:15;5.97;;;4.45;;
34924;SDS011;21130;51.728;8.748;2023-03-17T07:35:45;5.60;;;4.60;;
34924;SDS011;21130;51.728;8.748;2023-03-17T07:38:12;5.82;;;4.82;;
34924;SDS011;21130;51.728;8.748;2023-03-17T07:40:39;5.65;;;4.95;;
34924;SDS011;21130;51.728;8.748;2023-03-17T07:43:06;5.70;;;4.65;;
34924;SDS011;21130;51.728;8.748;2023-03-17T07:45:32;5.75;;;4.65;;
34924;SDS011;21130;51.728;8.748;2023-03-17T07:48:01;5.90;;;4.53;;
34924;SDS011;21130;51.728;8.748;2023-03-17T07:50:29;4.88;;;4.18;;
34924;SDS011;21130;51.728;8.748;2023-03-17T07:52:55;6.78;;;4.43;;
34924;SDS011;21130;51.728;8.748;2023-03-17T07:55:22;5.97;;;4.47;;
34924;SDS011;21130;51.728;8.748;2023-03-17T07:57:49;5.97;;;5.10;;
34924;SDS011;21130;51.728;8.748;2023-03-17T08:00:15;4.85;;;4.45;;
34924;SDS011;21130;51.728;8.748;2023-03-17T08:02:43;4.25;;;3.85;;
34924;SDS011;21130;51.728;8.748;2023-03-17T08:05:11;5.43;;;4.43;;
34924;SDS011;21130;51.728;8.748;2023-03-17T08:10:47;4.90;;;4.40;;
34924;SDS011;21130;51.728;8.748;2023-03-17T08:13:14;6.43;;;4.40;;
34924;SDS011;21130;51.728;8.748;2023-03-17T08:15:41;6.75;;;4.20;;
34924;SDS011;21130;51.728;8.748;2023-03-17T08:18:08;4.30;;;3.90;;
34924;SDS011;21130;51.728;8.748;2023-03-17T08:20:36;7.03;;;4.22;;
34924;SDS011;21130;51.728;8.748;2023-03-17T08:23:03;5.85;;;4.00;;
34924;SDS011;21130;51.728;8.748;2023-03-17T08:25:30;5.10;;;4.03;;
34924;SDS011;21130;51.728;8.748;2023-03-17T08:27:56;5.28;;;4.22;;
34924;SDS011;21130;51.728;8.748;2023-03-17T08:30:23;6.32;;;3.67;;
34924;SDS011;21130;51.728;8.748;2023-03-17T08:32:49;6.00;;;3.20;;
34924;SDS011;21130;51.728;8.748;2023-03-17T08:35:16;5.90;;;4.10;;
34924;SDS011;21130;51.728;8.748;2023-03-17T08:37:44;4.38;;;3.80;;
34924;SDS011;21130;51.728;8.748;2023-03-17T08:40:12;6.05;;;3.38;;
34924;SDS011;21130;51.728;8.748;2023-03-17T08:42:41;4.80;;;3.13;;
34924;SDS011;21130;51.728;8.748;2023-03-17T08:45:08;5.07;;;3.60;;
34924;SDS011;21130;51.728;8.748;2023-03-17T08:47:37;5.63;;;3.72;;
34924;SDS011;21130;51.728;8.748;2023-03-17T08:50:05;3.80;;;3.28;;
34924;SDS011;21130;51.728;8.748;2023-03-17T08:52:34;4.35;;;3.72;;
34924;SDS011;21130;51.728;8.748;2023-03-17T08:55:02;5.03;;;3.50;;
34924;SDS011;21130;51.728;8.748;2023-03-17T08:57:28;5.57;;;3.65;;
34924;SDS011;21130;51.728;8.748;2023-03-17T08:59:55;5.72;;;3.47;;
34924;SDS011;21130;51.728;8.748;2023-03-17T09:02:22;4.40;;;3.53;;
34924;SDS011;21130;51.728;8.748;2023-03-17T09:04:48;4.32;;;3.35;;
34924;SDS011;21130;51.728;8.748;2023-03-17T09:07:14;6.97;;;3.40;;
34924;SDS011;21130;51.728;8.748;2023-03-17T09:09:42;3.80;;;3.05;;
34924;SDS011;21130;51.728;8.748;2023-03-17T09:12:09;4.03;;;3.28;;
34924;SDS011;21130;51.728;8.748;2023-03-17T09:14:40;5.68;;;3.65;;
34924;SDS011;21130;51.728;8.748;2023-03-17T09:17:06;3.65;;;3.00;;
34924;SDS011;21130;51.728;8.748;2023-03-17T09:19:36;3.60;;;3.30;;
34924;SDS011;21130;51.728;8.748;2023-03-17T09:22:02;3.67;;;3.25;;
34924;SDS011;21130;51.728;8.748;2023-03-17T09:24:29;4.50;;;3.15;;
34924;SDS011;21130;51.728;8.748;2023-03-17T09:26:56;3.17;;;2.88;;
34924;SDS011;21130;51.728;8.748;2023-03-17T09:29:25;3.53;;;3.20;;
34924;SDS011;21130;51.728;8.748;2023-03-17T09:31:53;3.60;;;3.28;;
34924;SDS011;21130;51.728;8.748;2023-03-17T09:34:20;3.30;;;2.95;;
34924;SDS011;21130;51.728;8.748;2023-03-17T09:36:46;6.03;;;3.30;;
34924;SDS011;21130;51.728;8.748;2023-03-17T09:39:13;4.28;;;2.90;;
34924;SDS011;21130;51.728;8.748;2023-03-17T09:41:52;4.97;;;3.20;;
34924;SDS011;21130;51.728;8.748;2023-03-17T09:44:29;3.58;;;2.95;;
34924;SDS011;21130;51.728;8.748;2023-03-17T09:47:06;5.55;;;3.22;;
34924;SDS011;21130;51.728;8.748;2023-03-17T09:49:47;3.47;;;2.75;;
34924;SDS011;21130;51.728;8.748;2023-03-17T09:52:15;3.90;;;2.95;;
34924;SDS011;21130;51.728;8.748;2023-03-17T09:54:44;4.07;;;3.20;;
34924;SDS011;21130;51.728;8.748;2023-03-17T09:57:15;4.65;;;3.20;;
34924;SDS011;21130;51.728;8.748;2023-03-17T09:59:44;4.03;;;3.00;;
34924;SDS011;21130;51.728;8.748;2023-03-17T10:02:14;4.40;;;3.13;;
34924;SDS011;21130;51.728;8.748;2023-03-17T10:04:46;3.53;;;3.10;;
34924;SDS011;21130;51.728;8.748;2023-03-17T10:07:13;3.60;;;2.80;;
34924;SDS011;21130;51.728;8.748;2023-03-17T10:09:45;3.17;;;2.60;;
34924;SDS011;21130;51.728;8.748;2023-03-17T10:12:23;4.18;;;2.63;;
34924;SDS011;21130;51.728;8.748;2023-03-17T10:14:59;2.80;;;2.50;;
34924;SDS011;21130;51.728;8.748;2023-03-17T10:17:29;3.22;;;2.85;;
34924;SDS011;21130;51.728;8.748;2023-03-17T10:19:59;2.90;;;2.60;;
34924;SDS011;21130;51.728;8.748;2023-03-17T10:22:31;3.42;;;2.80;;
34924;SDS011;21130;51.728;8.748;2023-03-17T10:25:04;7.50;;;3.97;;
34924;SDS011;21130;51.728;8.748;2023-03-17T10:27:37;3.83;;;2.42;;
34924;SDS011;21130;51.728;8.748;2023-03-17T10:32:41;2.90;;;2.50;;
34924;SDS011;21130;51.728;8.748;2023-03-17T10:35:08;2.83;;;2.58;;
34924;SDS011;21130;51.728;8.748;2023-03-17T10:37:36;2.72;;;2.45;;
34924;SDS011;21130;51.728;8.748;2023-03-17T10:40:03;2.92;;;2.53;;
34924;SDS011;21130;51.728;8.748;2023-03-17T10:42:34;4.18;;;3.00;;
34924;SDS011;21130;51.728;8.748;2023-03-17T10:45:15;2.85;;;2.60;;
34924;SDS011;21130;51.728;8.748;2023-03-17T10:47:49;5.10;;;2.85;;
34924;SDS011;21130;51.728;8.748;2023-03-17T10:50:19;3.97;;;2.83;;
34924;SDS011;21130;51.728;8.748;2023-03-17T10:52:51;3.05;;;2.80;;
34924;SDS011;21130;51.728;8.748;2023-03-17T10:55:21;4.03;;;2.58;;
34924;SDS011;21130;51.728;8.748;2023-03-17T10:58:00;5.55;;;2.80;;
34924;SDS011;21130;51.728;8.748;2023-03-17T11:00:30;3.92;;;2.83;;
34924;SDS011;21130;51.728;8.748;2023-03-17T11:03:02;4.30;;;3.40;;
34924;SDS011;21130;51.728;8.748;2023-03-17T11:05:36;3.75;;;3.08;;
34924;SDS011;21130;51.728;8.748;2023-03-17T11:08:06;3.08;;;2.45;;
34924;SDS011;21130;51.728;8.748;2023-03-17T11:10:36;4.35;;;3.03;;
34924;SDS011;21130;51.728;8.748;2023-03-17T11:13:04;5.22;;;2.85;;
34924;SDS011;21130;51.728;8.748;2023-03-17T11:15:33;3.95;;;3.00;;
34924;SDS011;21130;51.728;8.748;2023-03-17T11:18:03;3.78;;;3.05;;
34924;SDS011;21130;51.728;8.748;2023-03-17T11:20:39;3.00;;;2.72;;
34924;SDS011;21130;51.728;8.748;2023-03-17T11:23:23;4.97;;;2.75;;
34924;SDS011;21130;51.728;8.748;2023-03-17T11:26:26;2.63;;;2.42;;
34924;SDS011;21130;51.728;8.748;2023-03-17T11:29:28;4.82;;;3.00;;
34924;SDS011;21130;51.728;8.748;2023-03-17T11:32:27;4.90;;;2.80;;
34924;SDS011;21130;51.728;8.748;2023-03-17T11:35:02;3.75;;;2.58;;
34924;SDS011;21130;51.728;8.748;2023-03-17T11:37:47;3.13;;;2.83;;
34924;SDS011;21130;51.728;8.748;2023-03-17T11:40:27;4.15;;;2.67;;
34924;SDS011;21130;51.728;8.748;2023-03-17T11:43:00;3.88;;;2.83;;
34924;SDS011;21130;51.728;8.748;2023-03-17T11:45:43;3.67;;;2.85;;
34924;SDS011;21130;51.728;8.748;2023-03-17T11:48:19;4.38;;;2.92;;
34924;SDS011;21130;51.728;8.748;2023-03-17T11:50:54;4.47;;;2.80;;
34924;SDS011;21130;51.728;8.748;2023-03-17T11:53:32;4.45;;;3.20;;
34924;SDS011;21130;51.728;8.748;2023-03-17T11:56:11;5.45;;;2.95;;
34924;SDS011;21130;51.728;8.748;2023-03-17T11:58:43;4.07;;;2.88;;
34924;SDS011;21130;51.728;8.748;2023-03-17T12:01:14;4.82;;;3.15;;
34924;SDS011;21130;51.728;8.748;2023-03-17T12:03:47;3.03;;;2.78;;
34924;SDS011;21130;51.728;8.748;2023-03-17T12:06:18;5.60;;;3.03;;
34924;SDS011;21130;51.728;8.748;2023-03-17T12:08:52;3.17;;;2.88;;
34924;SDS011;21130;51.728;8.748;2023-03-17T12:11:25;4.03;;;2.70;;
34924;SDS011;21130;51.728;8.748;2023-03-17T12:13:54;3.05;;;2.47;;
34924;SDS011;21130;51.728;8.748;2023-03-17T12:16:26;3.25;;;2.80;;
34924;SDS011;21130;51.728;8.748;2023-03-17T12:18:59;3.20;;;2.80;;
34924;SDS011;21130;51.728;8.748;2023-03-17T12:21:31;3.95;;;2.97;;
34924;SDS011;21130;51.728;8.748;2023-03-17T12:24:03;3.25;;;2.95;;
34924;SDS011;21130;51.728;8.748;2023-03-17T12:26:37;3.88;;;2.97;;
34924;SDS011;21130;51.728;8.748;2023-03-17T12:29:09;4.78;;;2.92;;
34924;SDS011;21130;51.728;8.748;2023-03-17T12:31:40;4.82;;;2.50;;
34924;SDS011;21130;51.728;8.748;2023-03-17T12:34:14;4.55;;;3.38;;
34924;SDS011;21130;51.728;8.748;2023-03-17T12:36:46;2.78;;;2.55;;
34924;SDS011;21130;51.728;8.748;2023-03-17T12:39:14;4.22;;;3.55;;
34924;SDS011;21130;51.728;8.748;2023-03-17T12:41:48;4.18;;;3.15;;
34924;SDS011;21130;51.728;8.748;2023-03-17T12:44:32;3.90;;;3.00;;
34924;SDS011;21130;51.728;8.748;2023-03-17T12:50:16;6.82;;;2.70;;
34924;SDS011;21130;51.728;8.748;2023-03-17T12:53:07;3.70;;;2.83;;
34924;SDS011;21130;51.728;8.748;2023-03-17T12:55:48;4.93;;;2.85;;
34924;SDS011;21130;51.728;8.748;2023-03-17T12:58:21;3.30;;;2.70;;
34924;SDS011;21130;51.728;8.748;2023-03-17T13:00:56;3.85;;;2.80;;
34924;SDS011;21130;51.728;8.748;2023-03-17T13:03:31;2.95;;;2.40;;
34924;SDS011;21130;51.728;8.748;2023-03-17T13:06:03;3.70;;;2.92;;
34924;SDS011;21130;51.728;8.748;2023-03-17T13:08:33;4.38;;;2.80;;
34924;SDS011;21130;51.728;8.748;2023-03-17T13:11:14;5.32;;;3.00;;
34924;SDS011;21130;51.728;8.748;2023-03-17T13:13:55;4.03;;;2.95;;
34924;SDS011;21130;51.728;8.748;2023-03-17T13:16:33;4.15;;;2.90;;
34924;SDS011;21130;51.728;8.748;2023-03-17T13:19:11;4.28;;;2.63;;
34924;SDS011;21130;51.728;8.748;2023-03-17T13:21:44;4.03;;;2.83;;
34924;SDS011;21130;51.728;8.748;2023-03-17T13:24:18;5.03;;;3.30;;
34924;SDS011;21130;51.728;8.748;2023-03-17T13:26:53;4.07;;;2.97;;
34924;SDS011;21130;51.728;8.748;2023-03-17T13:29:44;4.90;;;3.03;;
34924;SDS011;21130;51.728;8.748;2023-03-17T13:35:20;4.90;;;3.08;;
34924;SDS011;21130;51.728;8.748;2023-03-17T13:38:00;3.60;;;3.10;;
34924;SDS011;21130;51.728;8.748;2023-03-17T13:40:39;3.85;;;3.05;;
34924;SDS011;21130;51.728;8.748;2023-03-17T13:43:21;4.00;;;2.90;;
34924;SDS011;21130;51.728;8.748;2023-03-17T13:48:48;6.25;;;3.40;;
34924;SDS011;21130;51.728;8.748;2023-03-17T13:51:17;3.53;;;2.88;;
34924;SDS011;21130;51.728;8.748;2023-03-17T13:53:48;6.22;;;5.63;;
34924;SDS011;21130;51.728;8.748;2023-03-17T13:56:21;8.85;;;5.07;;
34924;SDS011;21130;51.728;8.748;2023-03-17T13:58:50;5.88;;;3.00;;
34924;SDS011;21130;51.728;8.748;2023-03-17T14:01:34;3.17;;;2.65;;
34924;SDS011;21130;51.728;8.748;2023-03-17T14:04:11;3.35;;;2.53;;
34924;SDS011;21130;51.728;8.748;2023-03-17T14:06:43;4.40;;;3.00;;
34924;SDS011;21130;51.728;8.748;2023-03-17T14:09:17;4.90;;;2.65;;
34924;SDS011;21130;51.728;8.748;2023-03-17T14:11:52;3.05;;;2.22;;
34924;SDS011;21130;51.728;8.748;2023-03-17T14:14:26;3.33;;;2.70;;
34924;SDS011;21130;51.728;8.748;2023-03-17T14:17:01;3.63;;;2.90;;
34924;SDS011;21130;51.728;8.748;2023-03-17T14:19:36;3.03;;;2.70;;
34924;SDS011;21130;51.728;8.748;2023-03-17T14:25:15;4.97;;;3.05;;
34924;SDS011;21130;51.728;8.748;2023-03-17T14:27:44;5.53;;;2.80;;
34924;SDS011;21130;51.728;8.748;2023-03-17T14:30:17;3.85;;;2.33;;
34924;SDS011;21130;51.728;8.748;2023-03-17T14:32:46;5.75;;;2.92;;
34924;SDS011;21130;51.728;8.748;2023-03-17T14:35:14;3.60;;;2.53;;
34924;SDS011;21130;51.728;8.748;2023-03-17T14:37:40;7.45;;;2.90;;
34924;SDS011;21130;51.728;8.748;2023-03-17T14:40:18;3.50;;;2.60;;
34924;SDS011;21130;51.728;8.748;2023-03-17T14:42:46;3.88;;;2.53;;
34924;SDS011;21130;51.728;8.748;2023-03-17T14:45:18;2.72;;;2.40;;
34924;SDS011;21130;51.728;8.748;2023-03-17T14:47:47;5.50;;;2.70;;
34924;SDS011;21130;51.728;8.748;2023-03-17T14:50:16;4.78;;;2.35;;
34924;SDS011;21130;51.728;8.748;2023-03-17T14:52:46;4.90;;;3.13;;
34924;SDS011;21130;51.728;8.748;2023-03-17T14:55:15;4.32;;;2.53;;
34924;SDS011;21130;51.728;8.748;2023-03-17T14:57:47;3.22;;;2.60;;
34924;SDS011;21130;51.728;8.748;2023-03-17T15:00:29;5.70;;;2.83;;
34924;SDS011;21130;51.728;8.748;2023-03-17T15:02:59;4.00;;;2.55;;
34924;SDS011;21130;51.728;8.748;2023-03-17T15:05:35;4.82;;;2.40;;
34924;SDS011;21130;51.728;8.748;2023-03-17T15:10:55;3.88;;;2.50;;
34924;SDS011;21130;51.728;8.748;2023-03-17T15:13:25;9.43;;;2.60;;
34924;SDS011;21130;51.728;8.748;2023-03-17T15:15:52;3.45;;;2.50;;
34924;SDS011;21130;51.728;8.748;2023-03-17T15:18:19;3.45;;;2.40;;
34924;SDS011;21130;51.728;8.748;2023-03-17T15:20:47;3.78;;;2.38;;
34924;SDS011;21130;51.728;8.748;2023-03-17T15:23:15;6.15;;;2.70;;
34924;SDS011;21130;51.728;8.748;2023-03-17T15:25:43;5.85;;;2.67;;
34924;SDS011;21130;51.728;8.748;2023-03-17T15:28:15;5.78;;;2.40;;